Time;durP1;ratioP1;P1;durP2;ratioP2;P2;SDS_P1;SDS_P2;PMS_P1;PMS_P2;Temp;Humidity;BMP_temperature;BMP_pressure;BME280_temperature;BME280_humidity;BME280_pressure;Samples;Min_cycle;Max_cycle;Signal;HPM_P1;HPM_P2
2022/02/07 00:01:18;;;;;;;9.35;2.45;;;;;;;6.13;100.00;96424.78;5003825;28;20133;-57
2022/02/07 00:03:55;;;;;;;11.20;2.67;;;;;;;5.86;100.00;96405.38;5004373;28;20152;-58
2022/02/07 00:06:20;;;;;;;12.65;2.35;;;;;;;6.73;100.00;96439.13;5002956;28;20666;-58
2022/02/07 00:08:46;;;;;;;7.82;2.33;;;;;;;6.23;100.00;96445.91;5003801;28;20025;-57
2022/02/07 00:11:13;;;;;;;10.65;2.50;;;;;;;6.39;100.00;96466.69;5005950;28;20045;-57
2022/02/07 00:13:39;;;;;;;8.40;2.30;;;;;;;6.48;100.00;96486.13;5004947;28;20049;-58
2022/02/07 00:16:04;;;;;;;10.02;2.40;;;;;;;5.65;100.00;96496.00;5004182;28;20069;-58
2022/02/07 00:18:32;;;;;;;12.13;2.72;;;;;;;7.21;100.00;96519.66;5004744;28;20759;-56
2022/02/07 00:20:58;;;;;;;8.65;2.20;;;;;;;6.10;100.00;96525.03;5005796;28;20057;-57
2022/02/07 00:23:23;;;;;;;9.50;2.35;;;;;;;6.53;100.00;96525.63;5004543;28;20064;-57
2022/02/07 00:25:49;;;;;;;9.60;2.50;;;;;;;6.61;100.00;96514.88;5004597;28;20064;-57
2022/02/07 00:28:14;;;;;;;7.75;2.30;;;;;;;5.13;100.00;96513.84;5003683;28;20072;-57
2022/02/07 00:30:40;;;;;;;9.32;2.40;;;;;;;5.87;100.00;96541.63;5003520;28;20137;-56
2022/02/07 00:33:05;;;;;;;8.75;2.50;;;;;;;5.84;100.00;96528.81;5003183;28;20036;-55
2022/02/07 00:35:31;;;;;;;11.05;2.75;;;;;;;5.69;100.00;96551.03;5005959;28;20056;-57
2022/02/07 00:38:01;;;;;;;8.32;2.30;;;;;;;6.44;100.00;96541.59;5007090;28;20808;-56
2022/02/07 00:40:46;;;;;;;10.20;2.72;;;;;;;6.34;100.00;96526.50;5008129;28;20038;-58
2022/02/07 00:48:16;;;;;;;9.48;2.42;;;;;;;5.91;100.00;96563.84;5006531;28;20025;-57
2022/02/07 00:50:42;;;;;;;8.32;2.53;;;;;;;5.17;100.00;96587.75;5007481;28;20037;-57
2022/02/07 00:53:13;;;;;;;8.80;2.40;;;;;;;6.34;100.00;96614.53;5007393;28;20030;-56
2022/02/07 00:55:39;;;;;;;9.73;2.45;;;;;;;5.81;100.00;96622.94;5006703;28;20032;-59
2022/02/07 00:58:04;;;;;;;9.70;2.63;;;;;;;6.33;100.00;96635.31;5007645;28;20026;-59
2022/02/07 01:00:30;;;;;;;9.68;2.63;;;;;;;6.66;100.00;96640.69;5009511;28;20068;-59
2022/02/07 01:02:55;;;;;;;7.85;2.13;;;;;;;8.10;100.00;96650.84;5007198;28;20029;-60
2022/02/07 01:05:21;;;;;;;9.25;2.42;;;;;;;8.83;100.00;96652.97;5006007;28;21014;-59
2022/02/07 01:07:49;;;;;;;10.27;2.45;;;;;;;7.17;100.00;96652.97;5007217;28;20546;-59
2022/02/07 01:10:21;;;;;;;7.28;2.15;;;;;;;7.08;100.00;96626.56;5006227;28;20021;-60
2022/02/07 01:23:20;;;;;;;6.97;2.10;;;;;;;8.73;100.00;96680.44;5006696;28;20083;-61
2022/02/07 01:48:08;;;;;;;5.95;1.83;;;;;;;8.10;100.00;96730.47;5007780;28;20136;-58
2022/02/07 01:51:02;;;;;;;7.25;2.15;;;;;;;10.81;100.00;96730.88;5006626;28;20044;-57
2022/02/07 01:55:59;;;;;;;7.13;2.30;;;;;;;7.30;100.00;96750.84;5005002;28;20041;-57
2022/02/07 01:58:25;;;;;;;7.78;2.13;;;;;;;7.73;100.00;96759.13;5004679;28;20026;-58
2022/02/07 02:00:51;;;;;;;7.53;2.22;;;;;;;7.17;100.00;96759.28;5007461;28;20547;-57
2022/02/07 02:03:17;;;;;;;6.78;2.03;;;;;;;8.18;100.00;96772.50;5006779;28;20156;-57
2022/02/07 02:05:43;;;;;;;7.75;2.25;;;;;;;8.32;100.00;96787.34;5005235;28;20050;-59
2022/02/07 02:08:11;;;;;;;7.38;2.03;;;;;;;7.72;100.00;96793.81;5005508;28;20038;-57
2022/02/07 02:10:40;;;;;;;6.72;2.10;;;;;;;8.66;100.00;96809.03;5006969;28;20798;-58
2022/02/07 02:13:13;;;;;;;6.50;2.05;;;;;;;9.41;100.00;96811.94;5005733;28;20021;-58
2022/02/07 02:35:14;;;;;;;7.95;2.22;;;;;;;7.59;100.00;96887.88;5005890;28;20036;-57
2022/02/07 02:37:28;;;;;;;6.15;1.70;;;;;;;10.55;100.00;96910.59;5008079;28;20061;-57
2022/02/07 02:47:59;;;;;;;6.45;2.30;;;;;;;7.64;100.00;96927.44;5006360;28;20131;-58
2022/02/07 02:50:30;;;;;;;7.78;2.28;;;;;;;9.44;100.00;96949.72;5004917;28;20033;-56
2022/02/07 02:53:02;;;;;;;6.07;2.08;;;;;;;9.22;100.00;96950.03;5005925;28;20034;-58
2022/02/07 02:55:28;;;;;;;5.72;1.90;;;;;;;10.38;100.00;96952.41;5004778;28;20706;-57
2022/02/07 02:57:54;;;;;;;7.20;2.15;;;;;;;8.86;100.00;96964.00;5004427;28;20030;-56
2022/02/07 03:00:20;;;;;;;6.95;2.13;;;;;;;7.72;100.00;96959.06;5005134;28;20063;-56
2022/02/07 03:02:45;;;;;;;6.68;2.15;;;;;;;7.72;100.00;96967.69;5004500;28;20033;-58
2022/02/07 03:05:10;;;;;;;5.82;2.10;;;;;;;11.35;100.00;96973.66;5005902;28;20032;-58
2022/02/07 03:07:36;;;;;;;7.03;2.30;;;;;;;8.03;100.00;96978.41;5005150;28;20446;-57
2022/02/07 03:10:03;;;;;;;6.25;2.20;;;;;;;9.70;100.00;96996.97;5006194;28;20057;-56
2022/02/07 03:12:30;;;;;;;7.78;2.40;;;;;;;8.37;100.00;97001.03;5004071;28;20160;-58
2022/02/07 03:16:35;;;;;;;7.30;2.53;;;;;;;7.57;100.00;97007.31;5003893;28;20555;-57
2022/02/07 03:17:41;;;;;;;6.00;1.90;;;;;;;11.25;100.00;97022.16;5004468;28;20054;-57
2022/02/07 03:20:07;;;;;;;7.18;2.33;;;;;;;8.04;100.00;97009.50;5005346;28;20038;-58
2022/02/07 03:22:32;;;;;;;7.85;2.35;;;;;;;8.93;100.00;97026.94;5004704;28;20071;-58
2022/02/07 03:24:58;;;;;;;8.45;2.58;;;;;;;8.99;100.00;97024.88;5004588;28;20025;-57
2022/02/07 03:27:23;;;;;;;6.90;2.20;;;;;;;7.08;100.00;97031.06;5003663;28;20042;-60
2022/02/07 03:29:48;;;;;;;6.85;2.15;;;;;;;6.73;100.00;97037.72;5005850;28;20030;-57
2022/02/07 03:32:13;;;;;;;7.28;2.35;;;;;;;7.58;100.00;97049.69;5004852;28;20030;-58
2022/02/07 03:34:39;;;;;;;6.25;2.05;;;;;;;11.18;100.00;97058.22;5003793;28;20032;-59
2022/02/07 03:37:04;;;;;;;7.82;2.33;;;;;;;8.52;100.00;97084.41;5004919;28;20030;-58
2022/02/07 03:39:30;;;;;;;6.60;2.00;;;;;;;11.52;100.00;97103.25;5004651;28;20764;-58
2022/02/07 03:41:55;;;;;;;6.85;2.28;;;;;;;9.03;100.00;97094.03;5003502;28;20064;-59
2022/02/07 03:44:20;;;;;;;6.95;2.38;;;;;;;6.64;100.00;97108.06;5006774;28;20387;-59
2022/02/07 03:46:46;;;;;;;8.20;2.30;;;;;;;6.85;100.00;97117.53;5003600;28;20670;-58
2022/02/07 03:49:11;;;;;;;6.72;2.17;;;;;;;7.31;100.00;97135.56;5005645;28;20790;-59
2022/02/07 03:51:36;;;;;;;10.75;2.75;;;;;;;6.07;100.00;97138.72;5004480;28;20104;-59
2022/02/07 03:54:02;;;;;;;9.95;2.53;;;;;;;6.85;100.00;97158.19;5006320;28;20037;-58
2022/02/07 03:56:27;;;;;;;10.52;2.35;;;;;;;6.02;100.00;97159.56;5002351;28;20490;-57
2022/02/07 03:58:53;;;;;;;6.90;2.03;;;;;;;7.90;100.00;97178.06;5003679;28;20191;-58
2022/02/07 04:01:21;;;;;;;10.43;2.83;;;;;;;6.59;100.00;97183.34;5003872;28;20434;-58
2022/02/07 04:03:47;;;;;;;7.63;2.22;;;;;;;9.89;100.00;97205.16;5007056;28;20057;-59
2022/02/07 04:06:16;;;;;;;8.80;2.60;;;;;;;6.64;100.00;97189.22;5004052;28;20140;-59
2022/02/07 04:08:45;;;;;;;8.95;2.30;;;;;;;8.06;100.00;97224.97;5004754;28;20621;-58
2022/02/07 04:13:48;;;;;;;8.60;2.45;;;;;;;6.15;100.00;97240.22;5008723;28;20037;-58
2022/02/07 04:16:13;;;;;;;8.38;2.45;;;;;;;6.57;100.00;97257.72;5008112;28;20136;-59
2022/02/07 04:19:16;;;;;;;8.43;2.50;;;;;;;6.41;100.00;97269.53;5008429;28;20030;-58
2022/02/07 04:21:31;;;;;;;8.02;2.22;;;;;;;6.24;100.00;97270.97;5006648;28;20038;-59
2022/02/07 04:23:57;;;;;;;11.40;2.40;;;;;;;6.33;100.00;97282.75;5007182;28;20384;-59
2022/02/07 04:26:23;;;;;;;7.72;2.20;;;;;;;6.57;100.00;97275.84;5006691;28;20034;-58
2022/02/07 04:28:48;;;;;;;7.60;2.17;;;;;;;6.46;100.00;97296.13;5008099;28;20064;-59
2022/02/07 04:31:14;;;;;;;8.88;2.40;;;;;;;8.47;100.00;97302.91;5009489;28;20037;-59
2022/02/07 04:33:39;;;;;;;7.93;2.03;;;;;;;9.13;100.00;97325.94;5010174;28;20563;-59
2022/02/07 04:36:05;;;;;;;8.93;2.40;;;;;;;6.85;100.00;97324.91;5007682;28;20042;-59
2022/02/07 04:38:30;;;;;;;7.93;2.17;;;;;;;7.35;100.00;97321.31;5007796;28;20037;-58
2022/02/07 04:40:55;;;;;;;5.60;1.77;;;;;;;10.38;100.00;97327.78;5009458;28;20029;-60
2022/02/07 04:43:21;;;;;;;6.65;1.88;;;;;;;6.87;100.00;97324.88;5007286;28;20029;-58
2022/02/07 04:51:37;;;;;;;6.95;1.90;;;;;;;11.35;100.00;97347.00;5010358;28;20281;-58
2022/02/07 04:55:03;;;;;;;6.20;1.70;;;;;;;9.00;100.00;97338.66;5009036;28;20037;-60
2022/02/07 04:59:38;;;;;;;6.55;1.92;;;;;;;8.45;100.00;97364.50;5006467;28;20022;-59
2022/02/07 05:02:15;;;;;;;6.32;1.60;;;;;;;7.36;100.00;97377.50;5008133;28;20896;-60
2022/02/07 05:04:46;;;;;;;6.93;2.03;;;;;;;8.12;100.00;97385.75;5009196;28;20069;-61
2022/02/07 05:15:37;;;;;;;6.57;1.80;;;;;;;8.37;100.00;97423.72;5006319;28;20087;-60
2022/02/07 05:18:03;;;;;;;5.90;1.73;;;;;;;7.22;100.00;97426.44;5006854;28;20025;-59
2022/02/07 05:20:28;;;;;;;8.48;2.20;;;;;;;8.35;100.00;97447.16;5006140;28;20060;-59
2022/02/07 05:22:53;;;;;;;6.13;1.80;;;;;;;10.78;100.00;97450.94;5007025;28;20037;-59
2022/02/07 05:25:19;;;;;;;6.45;1.70;;;;;;;6.42;100.00;97449.97;5013484;28;20093;-60
2022/02/07 05:27:44;;;;;;;6.72;2.15;;;;;;;10.06;100.00;97457.91;5007458;28;20112;-59
2022/02/07 05:30:10;;;;;;;6.85;2.17;;;;;;;8.59;100.00;97463.53;5006519;28;20719;-60
2022/02/07 05:32:35;;;;;;;7.78;2.08;;;;;;;7.42;100.00;97460.28;5006289;28;20056;-61
2022/02/07 05:35:01;;;;;;;6.30;1.83;;;;;;;9.21;100.00;97469.56;5005684;28;20818;-60
2022/02/07 05:37:28;;;;;;;6.90;2.17;;;;;;;11.64;100.00;97477.78;5006959;28;20033;-60
2022/02/07 05:39:58;;;;;;;6.80;2.08;;;;;;;8.13;100.00;97478.38;5008521;28;20467;-61
2022/02/07 05:42:24;;;;;;;8.65;2.30;;;;;;;7.25;100.00;97492.03;5005266;28;20045;-59
2022/02/07 05:44:49;;;;;;;7.78;2.28;;;;;;;6.47;100.00;97495.56;5008745;28;20552;-60
2022/02/07 05:47:14;;;;;;;7.32;1.88;;;;;;;8.52;100.00;97505.44;5007951;28;20060;-61
2022/02/07 05:49:40;;;;;;;8.98;2.15;;;;;;;7.42;100.00;97513.94;5008354;28;20040;-61
2022/02/07 05:52:06;;;;;;;10.32;2.58;;;;;;;6.68;100.00;97525.09;5006481;28;20057;-59
2022/02/07 05:54:31;;;;;;;11.75;2.40;;;;;;;6.08;100.00;97526.97;5007089;28;20607;-61
2022/02/07 05:56:56;;;;;;;9.25;2.47;;;;;;;6.95;100.00;97548.41;5004482;28;20044;-61
2022/02/07 05:59:22;;;;;;;9.48;2.35;;;;;;;6.05;100.00;97544.38;5008186;28;20119;-60
2022/02/07 06:01:47;;;;;;;12.45;3.20;;;;;;;8.02;100.00;97567.09;5004331;28;20932;-60
2022/02/07 06:04:12;;;;;;;9.52;2.20;;;;;;;5.77;100.00;97556.34;5010137;28;20530;-61
2022/02/07 06:06:38;;;;;;;7.82;2.22;;;;;;;5.69;100.00;97567.81;5010397;28;20042;-61
2022/02/07 06:09:03;;;;;;;6.53;1.90;;;;;;;6.63;100.00;97589.19;5009135;28;20029;-60
2022/02/07 06:11:29;;;;;;;10.80;2.15;;;;;;;5.39;100.00;97583.28;5009076;28;20606;-60
2022/02/07 06:13:54;;;;;;;9.25;2.40;;;;;;;6.02;100.00;97596.25;5010322;28;20033;-60
2022/02/07 06:16:19;;;;;;;8.48;1.90;;;;;;;6.55;100.00;97598.94;5008478;28;20034;-61
2022/02/07 06:18:49;;;;;;;5.68;1.75;;;;;;;9.09;100.00;97609.75;5009401;28;20029;-60
2022/02/07 06:21:15;;;;;;;8.27;2.10;;;;;;;7.97;100.00;97614.91;5009618;28;20045;-61
2022/02/07 06:23:41;;;;;;;9.65;2.45;;;;;;;8.15;100.00;97616.84;5009804;28;20018;-59
2022/02/07 06:26:07;;;;;;;7.88;1.90;;;;;;;6.08;100.00;97622.78;5008657;28;20030;-58
2022/02/07 06:28:32;;;;;;;8.70;2.50;;;;;;;8.12;100.00;97632.53;5008740;28;20037;-58
2022/02/07 06:30:58;;;;;;;6.25;1.60;;;;;;;8.04;100.00;97642.34;5009345;28;20034;-59
2022/02/07 06:33:24;;;;;;;9.52;2.15;;;;;;;8.24;100.00;97626.88;5006302;28;20080;-59
2022/02/07 06:35:50;;;;;;;5.57;1.80;;;;;;;8.79;100.00;97643.91;5011285;28;20038;-58
2022/02/07 06:38:15;;;;;;;8.95;2.08;;;;;;;6.34;100.00;97642.75;5007201;28;20535;-59
2022/02/07 06:40:40;;;;;;;8.40;1.90;;;;;;;8.29;100.00;97660.50;5009429;28;20037;-60
2022/02/07 06:43:06;;;;;;;5.60;1.65;;;;;;;8.70;100.00;97670.25;5010089;28;20022;-58
2022/02/07 06:45:31;;;;;;;12.35;2.50;;;;;;;6.37;100.00;97655.59;5009065;28;20045;-59
2022/02/07 06:47:57;;;;;;;7.90;2.20;;;;;;;7.36;100.00;97682.81;5008779;28;20846;-59
2022/02/07 06:50:22;;;;;;;8.57;2.17;;;;;;;6.11;100.00;97678.81;5006497;28;20525;-58
2022/02/07 06:52:47;;;;;;;6.65;2.00;;;;;;;9.35;100.00;97684.97;5008247;28;20036;-58
2022/02/07 06:55:13;;;;;;;9.50;2.45;;;;;;;7.36;100.00;97690.59;5007306;28;20118;-59
2022/02/07 06:57:38;;;;;;;8.75;2.40;;;;;;;5.77;100.00;97685.75;5009167;28;20021;-58
2022/02/07 07:00:10;;;;;;;10.07;2.50;;;;;;;5.18;100.00;97701.03;5010156;28;20037;-59
2022/02/07 07:02:35;;;;;;;9.40;2.60;;;;;;;5.86;100.00;97705.34;5009021;28;20038;-62
2022/02/07 07:05:08;;;;;;;16.05;2.65;;;;;;;4.74;100.00;97716.72;5007129;28;20030;-58
2022/02/07 07:07:34;;;;;;;13.52;2.63;;;;;;;5.01;100.00;97729.88;5007271;28;20164;-57
2022/02/07 07:09:59;;;;;;;10.90;2.80;;;;;;;4.37;100.00;97722.63;5007116;28;20565;-59
2022/02/07 07:12:26;;;;;;;13.45;3.10;;;;;;;4.79;100.00;97739.84;5009019;28;20037;-59
2022/02/07 07:15:02;;;;;;;11.57;3.08;;;;;;;4.10;100.00;97746.41;5006889;28;20933;-57
2022/02/07 07:17:29;;;;;;;15.23;3.08;;;;;;;5.58;100.00;97767.31;5009626;28;20124;-59
2022/02/07 07:19:54;;;;;;;13.50;3.05;;;;;;;4.91;100.00;97765.44;5008408;28;20033;-58
2022/02/07 07:22:19;;;;;;;14.60;3.20;;;;;;;4.56;100.00;97764.44;5010390;28;20404;-59
2022/02/07 07:24:45;;;;;;;14.25;3.25;;;;;;;4.59;100.00;97774.69;5006087;28;20491;-59
2022/02/07 07:27:13;;;;;;;13.35;3.13;;;;;;;4.68;100.00;97773.66;5011316;28;20076;-59
2022/02/07 07:29:41;;;;;;;15.85;3.05;;;;;;;5.16;100.00;97785.53;5007940;28;20037;-60
2022/02/07 07:32:08;;;;;;;18.58;4.13;;;;;;;6.89;100.00;97788.00;5006960;28;20041;-59
2022/02/07 07:34:33;;;;;;;18.50;4.70;;;;;;;5.97;100.00;97788.81;5006143;28;20021;-59
2022/02/07 07:36:59;;;;;;;13.30;4.72;;;;;;;4.89;100.00;97794.75;5007707;28;20040;-59
2022/02/07 07:39:24;;;;;;;12.90;3.88;;;;;;;6.88;100.00;97811.38;5006666;28;20095;-59
2022/02/07 07:41:52;;;;;;;15.55;3.47;;;;;;;6.28;100.00;97803.50;5009944;28;20037;-60
2022/02/07 07:44:21;;;;;;;16.95;3.70;;;;;;;6.97;100.00;97811.09;5008681;28;20036;-59
2022/02/07 07:46:51;;;;;;;14.05;3.25;;;;;;;7.01;100.00;97817.88;5006071;28;20034;-60
2022/02/07 07:49:17;;;;;;;14.25;3.40;;;;;;;6.54;100.00;97827.84;5007277;28;20037;-60
2022/02/07 07:51:46;;;;;;;10.55;2.90;;;;;;;8.60;100.00;97839.59;5006885;28;20053;-60
2022/02/07 07:54:24;;;;;;;11.52;2.83;;;;;;;6.61;100.00;97826.78;5007149;28;20029;-60
2022/02/07 08:02:22;;;;;;;11.05;2.70;;;;;;;6.96;100.00;97835.31;5008476;28;20040;-59
2022/02/07 08:04:48;;;;;;;15.77;3.38;;;;;;;6.86;100.00;97839.09;5006800;28;20025;-59
2022/02/07 08:07:31;;;;;;;13.10;3.10;;;;;;;6.68;100.00;97835.25;5007697;28;20037;-58
2022/02/07 08:12:28;;;;;;;12.20;3.60;;;;;;;8.75;100.00;97860.72;5007414;28;20042;-58
2022/02/07 08:14:53;;;;;;;10.50;3.45;;;;;;;8.88;100.00;97877.63;5007329;28;20029;-58
2022/02/07 08:17:21;;;;;;;13.23;3.38;;;;;;;10.12;100.00;97891.97;5008114;28;20114;-59
2022/02/07 08:19:48;;;;;;;9.52;3.10;;;;;;;7.69;100.00;97878.09;5007397;28;20504;-58
2022/02/07 08:22:13;;;;;;;8.93;2.63;;;;;;;7.58;100.00;97888.81;5006102;28;20483;-58
2022/02/07 08:24:40;;;;;;;11.32;3.10;;;;;;;10.16;100.00;97896.13;5006376;28;20037;-57
2022/02/07 08:27:06;;;;;;;9.70;2.70;;;;;;;7.62;100.00;97886.97;5007599;28;20045;-58
2022/02/07 08:29:31;;;;;;;10.13;2.90;;;;;;;8.51;100.00;97889.31;5018345;28;20045;-58
2022/02/07 08:31:57;;;;;;;7.57;2.58;;;;;;;7.66;100.00;97896.38;5007700;28;20076;-59
2022/02/07 08:34:22;;;;;;;8.27;2.53;;;;;;;7.72;100.00;97910.00;5007743;28;20037;-59
2022/02/07 08:36:48;;;;;;;8.73;2.78;;;;;;;8.34;100.00;97922.78;5007513;28;20029;-58
2022/02/07 08:39:13;;;;;;;12.10;2.97;;;;;;;7.40;100.00;97918.75;5007323;28;20026;-59
2022/02/07 08:41:39;;;;;;;13.38;3.25;;;;;;;7.25;100.00;97939.97;5006107;28;20407;-58
2022/02/07 08:44:04;;;;;;;12.85;3.13;;;;;;;8.38;100.00;97943.44;5006752;28;20502;-58
2022/02/07 08:46:30;;;;;;;10.93;2.83;;;;;;;8.95;100.00;97948.47;5007685;28;20037;-58
2022/02/07 08:48:56;;;;;;;9.80;2.75;;;;;;;7.96;100.00;97949.09;5008456;28;20072;-57
2022/02/07 08:51:21;;;;;;;13.25;3.20;;;;;;;7.38;100.00;97959.47;5009070;28;20108;-58
2022/02/07 08:53:48;;;;;;;10.13;2.50;;;;;;;6.47;100.00;97950.69;5008054;28;20057;-57
2022/02/07 08:56:16;;;;;;;10.45;2.90;;;;;;;8.06;100.00;97973.03;5008444;28;20033;-58
2022/02/07 08:58:45;;;;;;;13.93;3.55;;;;;;;8.44;100.00;97971.00;5010906;28;20033;-58
2022/02/07 09:01:28;;;;;;;9.07;2.80;;;;;;;9.77;100.00;97952.38;5007933;28;20038;-58
2022/02/07 09:07:05;;;;;;;8.57;2.53;;;;;;;11.14;100.00;97982.50;4957963;28;20051;-59
2022/02/07 09:09:32;;;;;;;7.88;2.60;;;;;;;8.27;100.00;97984.50;5003164;28;20046;-57
2022/02/07 09:11:57;;;;;;;10.40;3.08;;;;;;;8.63;100.00;97982.47;5011682;28;20124;-58
2022/02/07 09:14:24;;;;;;;6.95;2.22;;;;;;;9.11;100.00;97972.19;5010902;28;20034;-59
2022/02/07 09:16:51;;;;;;;11.05;3.22;;;;;;;11.42;100.00;97989.09;5009069;28;20034;-58
2022/02/07 09:19:19;;;;;;;10.95;3.40;;;;;;;8.54;100.00;97993.19;5012276;28;20034;-58
2022/02/07 09:21:46;;;;;;;10.73;2.50;;;;;;;8.84;100.00;97998.25;5009416;28;20866;-58
2022/02/07 09:24:11;;;;;;;9.02;2.83;;;;;;;9.13;100.00;98012.84;5013653;28;20650;-59
2022/02/07 09:26:37;;;;;;;7.25;2.50;;;;;;;8.16;100.00;98002.16;5009063;28;20572;-58
2022/02/07 09:29:02;;;;;;;9.25;2.72;;;;;;;9.25;100.00;98015.03;5011476;28;20030;-58
2022/02/07 09:31:28;;;;;;;13.00;2.83;;;;;;;8.17;100.00;98025.50;5010283;28;20072;-59
2022/02/07 09:33:53;;;;;;;9.48;2.63;;;;;;;9.94;100.00;98031.63;5012370;28;20491;-58
2022/02/07 09:36:21;;;;;;;11.38;2.85;;;;;;;7.69;100.00;98026.09;5009763;28;20056;-59
2022/02/07 09:38:46;;;;;;;9.60;2.88;;;;;;;7.79;100.00;98035.28;5008621;28;20132;-59
2022/02/07 09:41:14;;;;;;;9.77;2.75;;;;;;;8.95;100.00;98040.38;5010174;28;20104;-58
2022/02/07 09:43:46;;;;;;;10.48;3.30;;;;;;;8.54;100.00;98045.16;5009750;28;20018;-58
2022/02/07 09:46:21;;;;;;;9.82;2.63;;;;;;;8.94;100.00;98051.66;5009867;28;20041;-58
2022/02/07 09:48:48;;;;;;;8.45;2.72;;;;;;;9.75;100.00;98065.34;5008858;28;20084;-59
2022/02/07 09:51:14;;;;;;;7.40;2.60;;;;;;;9.24;100.00;98074.94;5008969;28;20026;-59
2022/02/07 09:53:41;;;;;;;12.75;3.03;;;;;;;9.56;100.00;98058.22;5011485;28;20027;-57
2022/02/07 09:56:09;;;;;;;7.20;2.65;;;;;;;10.54;100.00;98064.09;5011483;28;20037;-58
2022/02/07 09:58:37;;;;;;;10.77;2.80;;;;;;;8.13;100.00;98075.88;5010020;28;20096;-59
2022/02/07 10:01:11;;;;;;;11.75;2.70;;;;;;;8.63;100.00;98089.06;5010102;28;20038;-58
2022/02/07 10:03:50;;;;;;;11.05;2.72;;;;;;;8.61;100.00;98088.28;5009799;28;20056;-60
2022/02/07 10:06:32;;;;;;;10.60;3.17;;;;;;;9.18;100.00;98104.63;5006754;28;20072;-57
2022/02/07 10:09:14;;;;;;;8.75;2.80;;;;;;;9.59;100.00;98102.38;5010039;28;20038;-59
2022/02/07 10:12:00;;;;;;;8.60;2.83;;;;;;;9.30;100.00;98108.59;5010336;28;20045;-59
2022/02/07 10:39:57;;;;;;;11.18;2.72;;;;;;;14.58;100.00;98160.34;5009993;28;20026;-58
2022/02/07 10:44:59;;;;;;;9.50;2.63;;;;;;;12.40;100.00;98172.88;5008404;28;20037;-58
2022/02/07 10:47:36;;;;;;;8.43;2.40;;;;;;;9.80;100.00;98165.88;5008760;28;20044;-59
2022/02/07 10:50:08;;;;;;;8.77;2.40;;;;;;;8.36;100.00;98173.06;5010244;28;20029;-58
2022/02/07 10:52:47;;;;;;;;;;;;;;;8.24;100.00;98182.94;5009436;28;20565;-57
2022/02/07 10:55:32;;;;;;;14.27;2.90;;;;;;;9.90;100.00;98168.16;5008119;28;19909;-59
2022/02/07 10:58:00;;;;;;;9.90;2.80;;;;;;;9.99;100.00;98173.03;5007779;28;20025;-59
2022/02/07 11:00:39;;;;;;;8.38;2.80;;;;;;;10.54;100.00;98176.22;5006387;28;20037;-59
2022/02/07 11:03:17;;;;;;;7.90;2.38;;;;;;;9.89;100.00;98175.13;5009205;28;20030;-59
2022/02/07 11:05:51;;;;;;;9.10;2.65;;;;;;;8.52;100.00;98179.56;5009427;28;20038;-60
2022/02/07 11:11:04;;;;;;;11.10;2.42;;;;;;;8.75;100.00;98196.22;5008432;28;20037;-61
2022/02/07 11:16:12;;;;;;;9.18;2.35;;;;;;;8.56;100.00;98188.97;5007957;28;20753;-60
2022/02/07 11:19:05;;;;;;;5.38;2.20;;;;;;;13.81;100.00;98216.81;5006923;28;20029;-60
2022/02/07 11:27:28;;;;;;;6.85;2.30;;;;;;;10.93;100.00;98217.34;4978392;28;20069;-60
2022/02/07 11:29:53;;;;;;;8.75;2.42;;;;;;;8.13;100.00;98247.34;5009229;28;20024;-59
2022/02/07 11:32:42;;;;;;;9.23;2.45;;;;;;;10.43;100.00;98245.38;5005574;28;20034;-61
2022/02/07 11:35:24;;;;;;;9.75;2.30;;;;;;;10.34;100.00;98252.59;5007353;28;20072;-60
2022/02/07 11:38:11;;;;;;;10.02;2.47;;;;;;;9.58;100.00;98262.13;5009158;28;20022;-60
2022/02/07 11:41:04;;;;;;;8.95;2.47;;;;;;;11.49;100.00;98289.13;5007358;28;20083;-59
2022/02/07 11:43:31;;;;;;;5.80;2.25;;;;;;;10.67;100.00;98301.00;5009333;28;20132;-60
2022/02/07 11:46:06;;;;;;;5.70;2.38;;;;;;;12.86;100.00;98319.94;5008178;28;20052;-61
2022/02/07 11:48:58;;;;;;;8.60;2.50;;;;;;;12.08;100.00;98303.31;5008187;28;20033;-60
2022/02/07 11:51:30;;;;;;;7.47;2.40;;;;;;;10.16;100.00;98308.84;5003946;28;20041;-60
2022/02/07 11:54:02;;;;;;;8.07;2.35;;;;;;;9.98;100.00;98320.72;5007245;28;20484;-59
2022/02/07 11:56:45;;;;;;;6.85;2.15;;;;;;;10.87;100.00;98331.56;5013147;28;20030;-59
2022/02/07 12:02:06;;;;;;;8.48;2.40;;;;;;;10.98;100.00;98345.91;5008939;28;20594;-60
2022/02/07 12:04:41;;;;;;;9.63;2.67;;;;;;;10.55;100.00;98344.88;5010238;28;20030;-60
2022/02/07 12:07:22;;;;;;;7.18;2.22;;;;;;;9.01;100.00;98347.19;5007882;28;20046;-62
2022/02/07 12:09:58;;;;;;;7.03;2.33;;;;;;;9.81;100.00;98339.53;5011291;28;20049;-60
2022/02/07 12:12:37;;;;;;;9.32;2.67;;;;;;;8.71;100.00;98361.88;5008488;28;20053;-60
2022/02/07 12:15:12;;;;;;;8.40;2.53;;;;;;;9.30;100.00;98363.69;5008504;28;20024;-59
2022/02/07 12:17:51;;;;;;;8.10;2.33;;;;;;;10.35;100.00;98360.38;5009151;28;20050;-61
2022/02/07 12:20:19;;;;;;;8.57;2.35;;;;;;;11.50;100.00;98358.75;5007829;28;20041;-60
2022/02/07 12:22:51;;;;;;;7.57;2.30;;;;;;;8.92;100.00;98357.84;5005415;28;20026;-60
2022/02/07 12:25:23;;;;;;;7.25;2.63;;;;;;;11.79;100.00;98359.38;5007895;28;20057;-61
2022/02/07 12:27:50;;;;;;;7.50;2.17;;;;;;;11.81;100.00;98369.75;5007143;28;20113;-59
2022/02/07 12:30:18;;;;;;;8.68;2.83;;;;;;;10.64;100.00;98367.16;5006932;28;20040;-60
2022/02/07 12:32:46;;;;;;;7.80;2.35;;;;;;;13.66;100.00;98371.31;5011389;28;20080;-60
2022/02/07 12:35:12;;;;;;;5.30;2.00;;;;;;;12.14;100.00;98365.78;5012918;28;20021;-61
2022/02/07 12:37:38;;;;;;;7.82;2.55;;;;;;;9.36;100.00;98358.28;5011770;28;20024;-61
2022/02/07 12:40:07;;;;;;;7.88;2.42;;;;;;;9.25;100.00;98362.97;5010167;28;20456;-61
2022/02/07 12:42:34;;;;;;;5.90;2.30;;;;;;;12.52;100.00;98372.97;5013336;28;20079;-61
2022/02/07 12:45:01;;;;;;;8.13;2.50;;;;;;;10.35;100.00;98370.81;5010870;28;20034;-59
2022/02/07 12:47:26;;;;;;;7.45;2.53;;;;;;;11.29;100.00;98383.94;5010462;28;20042;-59
2022/02/07 12:49:55;;;;;;;8.75;2.50;;;;;;;10.32;100.00;98376.13;5012683;28;20040;-59
2022/02/07 12:52:31;;;;;;;9.85;2.55;;;;;;;8.93;100.00;98375.16;5011531;28;20037;-59
2022/02/07 12:54:59;;;;;;;8.45;2.65;;;;;;;11.24;100.00;98371.97;5012068;28;20053;-59
2022/02/07 12:57:26;;;;;;;7.75;2.40;;;;;;;9.56;100.00;98378.50;5011488;28;20593;-59
2022/02/07 12:59:52;;;;;;;9.27;2.40;;;;;;;11.61;100.00;98387.06;5008527;28;20117;-60
2022/02/07 13:02:27;;;;;;;7.00;2.45;;;;;;;11.83;100.00;98388.84;5011091;28;20140;-60
2022/02/07 13:04:52;;;;;;;9.70;2.67;;;;;;;9.51;100.00;98389.97;5010334;28;20025;-60
2022/02/07 13:07:20;;;;;;;7.63;2.30;;;;;;;10.08;100.00;98399.44;5009891;28;20038;-60
2022/02/07 13:09:52;;;;;;;7.75;2.30;;;;;;;10.19;100.00;98407.78;5011929;28;20095;-61
2022/02/07 13:12:31;;;;;;;7.78;2.30;;;;;;;11.34;100.00;98404.66;5009929;28;20034;-60
2022/02/07 13:14:57;;;;;;;6.50;2.50;;;;;;;10.50;100.00;98411.16;5011608;28;20025;-61
2022/02/07 13:17:27;;;;;;;8.90;2.53;;;;;;;12.31;100.00;98419.16;5009560;28;20064;-61
2022/02/07 13:19:54;;;;;;;7.97;2.45;;;;;;;11.69;100.00;98416.38;5011167;28;20685;-60
2022/02/07 13:22:22;;;;;;;6.20;2.25;;;;;;;12.09;100.00;98419.19;5011103;28;20038;-61
2022/02/07 13:24:49;;;;;;;6.78;2.60;;;;;;;10.61;100.00;98429.91;5010658;28;20116;-60
2022/02/07 13:27:17;;;;;;;8.10;2.17;;;;;;;11.32;100.00;98432.56;5010591;28;20455;-61
2022/02/07 13:29:56;;;;;;;7.88;2.35;;;;;;;10.79;100.00;98433.63;5011003;28;20029;-60
2022/02/07 13:32:29;;;;;;;8.57;2.60;;;;;;;9.63;100.00;98439.06;5007399;28;20046;-61
2022/02/07 13:35:03;;;;;;;;;;;;;;;12.54;100.00;98419.06;5012069;28;20025;-59
2022/02/07 13:37:31;;;;;;;7.75;2.45;;;;;;;11.32;100.00;98436.06;5010719;28;19929;-62
2022/02/07 13:40:01;;;;;;;10.13;2.67;;;;;;;9.51;100.00;98447.25;5009080;28;20101;-60
2022/02/07 13:42:32;;;;;;;11.02;2.83;;;;;;;9.45;100.00;98449.16;5008151;28;20075;-60
2022/02/07 13:45:25;;;;;;;9.05;2.47;;;;;;;9.28;100.00;98440.94;5010593;28;20090;-60
2022/02/07 13:47:53;;;;;;;6.90;2.42;;;;;;;13.48;100.00;98429.84;5011883;28;20042;-61
2022/02/07 13:50:28;;;;;;;8.23;2.35;;;;;;;12.37;100.00;98438.97;5009376;28;20026;-59
2022/02/07 13:53:00;;;;;;;5.68;1.92;;;;;;;11.72;100.00;98441.53;5011561;28;20522;-59
2022/02/07 13:55:28;;;;;;;6.90;2.30;;;;;;;11.23;100.00;98459.91;5012784;28;20160;-59
2022/02/07 13:58:06;;;;;;;6.50;2.28;;;;;;;14.88;100.00;98475.56;5009471;28;20017;-60